Saint Lawrence, Canada
Current Conditions -  °F | °C
As of 8:00 AM on Friday 24 Oct 2014 (Local Time) from LFVP Reporting Station
Overcast Overcast  
Wind Chill: 52°   Ceiling: 500
Heat Index: 52°   Visibility: 5mi
Dew Point: 50°   Wind: 22mph
Humidity: 94%   Direction: 80°E
Pressure: 29.85"   Gusts: NA
Location:  46.92°N, 55.39°W
Report Text: LFVP 241000Z 08019KT 8000 OVC005 11/10 Q1011 NOSIG
Loading
Personal Weather Stations






























Interactive Weather Map
Tropical Storm Tracking
New forecast layout! Learn more

10-Day Weather Forecast

Advertisements
Track Severe Weather on mobile